Hiei — JD3800 — position and weather

sailwx.info

Track history (hours):
 
Tides and Currents Weather Stations Pressure Air Temp Water Temp Dewpoint Dewpoint Depression Visibility Wind Speed Wind Dir Waves Ship Positions

Hiei

Last reported at 2018-Jun-25 07:01 UTC. Time now 2018-Jun-25 19:40 UTC.
Position N 34°31' E 135°24'.

Length 36 m; draft 3.8 m.

Type: Tug. MMSI: 431006214.

Date/timePositionNaut miles runAvg speedWind from/ knotsBaromVisibWave heightAir tempDewpointWater temp
2018-Jun-25 07:01N 34°31' E 135°24'0 2.8
2018-Jun-25 06:59N 34°31' E 135°24'511.2
2018-Jun-25 06:30N 34°36' E 135°24'2 4.9
2018-Jun-25 06:00N 34°35' E 135°27'1 1.5
2018-Jun-25 05:30N 34°35' E 135°26'3 6.2
2018-Jun-25 05:00N 34°36' E 135°23'1 1.4
2018-Jun-25 04:23N 34°36' E 135°24'0 0.0
2018-Jun-25 03:59N 34°36' E 135°24'0 0.0
2018-Jun-25 03:29N 34°36' E 135°24'0 0.0
2018-Jun-25 02:59N 34°36' E 135°24'0 0.0
2018-Jun-25 02:29N 34°36' E 135°24'0 0.0
2018-Jun-25 01:47N 34°36' E 135°24'0 0.0
2018-Jun-25 01:29N 34°36' E 135°24'0 0.0
2018-Jun-25 00:59N 34°36' E 135°24'0 0.0
2018-Jun-25 00:29N 34°36' E 135°24'0 0.0
2018-Jun-25 00:00N 34°36' E 135°24'0 0.3
2018-Jun-24 23:27N 34°36' E 135°24'0 0.0
2018-Jun-24 23:00N 34°36' E 135°24'4 7.9
2018-Jun-24 22:29N 34°40' E 135°25'2 4.1
2018-Jun-24 22:00N 34°38' E 135°24'1 2.9
2018-Jun-24 21:30N 34°37' E 135°23'611.7
2018-Jun-24 21:00N 34°31' E 135°24'0 0.0
2018-Jun-23 09:56N 34°31' E 135°24'511.2
2018-Jun-23 09:29N 34°36' E 135°24'3 4.5
2018-Jun-23 08:46N 34°39' E 135°26'0 0.1
2018-Jun-23 08:29N 34°39' E 135°26'3 6.5
2018-Jun-23 08:00N 34°36' E 135°23'6 7.6
2018-Jun-23 07:17N 34°31' E 135°24'0 0.0
2018-Jun-23 06:59N 34°31' E 135°24'0 0.0
2018-Jun-23 06:26N 34°31' E 135°24'0 0.0
2018-Jun-23 05:59N 34°31' E 135°24'0 0.0
2018-Jun-23 05:29N 34°31' E 135°24'0 0.0
2018-Jun-23 04:55N 34°31' E 135°24'0 0.0
2018-Jun-23 04:28N 34°31' E 135°24'0 0.0
2018-Jun-23 03:58N 34°31' E 135°24'0 0.0
2018-Jun-23 03:28N 34°31' E 135°24'0 0.0
2018-Jun-23 02:59N 34°31' E 135°24'0 0.0
2018-Jun-23 02:29N 34°31' E 135°24'1 0.9
2018-Jun-23 01:50N 34°31' E 135°23'1 4.0
2018-Jun-23 01:28N 34°32' E 135°23'0 0.7
2018-Jun-23 00:56N 34°33' E 135°22'2 0.1
2018-Jun-22 06:39N 34°31' E 135°24'1 4.3
2018-Jun-22 06:30N 34°31' E 135°23'0 0.4
2018-Jun-22 05:57N 34°31' E 135°23'0 0.1
2018-Jun-22 05:30N 34°31' E 135°23'0 0.0
2018-Jun-22 05:00N 34°31' E 135°23'0 0.0
2018-Jun-22 04:30N 34°31' E 135°23'0 0.0
2018-Jun-22 03:54N 34°31' E 135°23'0 0.0
2018-Jun-22 03:30N 34°31' E 135°23'4 5.8
2018-Jun-22 02:53N 34°33' E 135°27'3 7.1
2018-Jun-22 02:30N 34°32' E 135°24'1 1.8
2018-Jun-22 01:53N 34°31' E 135°23'1 1.5
2018-Jun-22 01:30N 34°32' E 135°23'1 0.1
2018-Jun-21 09:42N 34°31' E 135°24'2 9.5
2018-Jun-21 09:29N 34°33' E 135°23'612.7
2018-Jun-21 09:00N 34°39' E 135°24'0 0.3
2018-Jun-21 08:19N 34°39' E 135°24'0 0.1
2018-Jun-21 07:49N 34°39' E 135°24'0 0.0
2018-Jun-21 07:13N 34°39' E 135°24'0 0.0
2018-Jun-21 07:00N 34°39' E 135°24'611.6
2018-Jun-21 06:30N 34°33' E 135°23'3 5.2
2018-Jun-21 06:00N 34°31' E 135°24'0 0.0
2018-Jun-21 05:21N 34°31' E 135°24'0 0.0
2018-Jun-21 04:57N 34°31' E 135°24'1 0.9
2018-Jun-21 04:11N 34°31' E 135°23'1 3.1
2018-Jun-21 03:53N 34°32' E 135°23'2 0.1
2018-Jun-20 06:38N 34°31' E 135°24'1 6.9
2018-Jun-20 06:29N 34°32' E 135°23'612.9
2018-Jun-20 06:00N 34°38' E 135°23'1 1.9
2018-Jun-20 05:29N 34°39' E 135°24'1 1.7
2018-Jun-20 05:00N 34°38' E 135°23'2 3.6
2018-Jun-20 04:25N 34°36' E 135°24'0 0.0
2018-Jun-20 03:49N 34°36' E 135°24'0 0.0
2018-Jun-20 03:25N 34°36' E 135°24'0 0.0
2018-Jun-20 02:49N 34°36' E 135°24'0 0.0
2018-Jun-20 02:25N 34°36' E 135°24'0 0.0
2018-Jun-20 00:56N 34°36' E 135°24'3 5.7
2018-Jun-20 00:27N 34°33' E 135°25'1 1.0
2018-Jun-19 23:48N 34°33' E 135°26'0 0.2
2018-Jun-19 23:19N 34°33' E 135°26'2 5.5
2018-Jun-19 23:00N 34°33' E 135°24'1 1.6
2018-Jun-19 22:28N 34°32' E 135°24'1 2.0
2018-Jun-19 21:53N 34°33' E 135°23'0 0.9
2018-Jun-19 21:29N 34°33' E 135°23'1 2.4
2018-Jun-19 20:59N 34°32' E 135°24'1 1.8
2018-Jun-19 20:31N 34°31' E 135°24'0 0.0
2018-Jun-18 09:19N 34°31' E 135°24'1 1.8
2018-Jun-18 09:00N 34°31' E 135°23'0 0.2
2018-Jun-18 08:29N 34°31' E 135°23'3 3.3
2018-Jun-18 07:27N 34°33' E 135°26'2 5.1
2018-Jun-18 07:00N 34°33' E 135°23'3 2.7
2018-Jun-18 06:03N 34°33' E 135°20'0 0.3
2018-Jun-18 05:33N 34°33' E 135°20'0 1.4
2018-Jun-18 05:27N 34°33' E 135°20'3 6.1
2018-Jun-18 05:01N 34°33' E 135°24'1 1.5
2018-Jun-18 04:00N 34°33' E 135°25'3 5.0
2018-Jun-18 03:28N 34°33' E 135°22'3 5.4
2018-Jun-18 02:59N 34°34' E 135°19'2 3.9
2018-Jun-18 02:29N 34°33' E 135°21'3 5.7
2018-Jun-18 01:55N 34°31' E 135°24'0 0.0
2018-Jun-18 01:25N 34°31' E 135°24'0 0.0
2018-Jun-18 00:46N 34°31' E 135°24'0 0.0
2018-Jun-18 00:22N 34°31' E 135°24'0 0.0
2018-Jun-17 23:52N 34°31' E 135°24'0 0.0
2018-Jun-17 23:26N 34°31' E 135°24'0 0.0
2018-Jun-17 06:08N 34°31' E 135°24'1 4.3
2018-Jun-17 06:01N 34°31' E 135°23'0 0.1
2018-Jun-17 05:29N 34°31' E 135°23'2 3.8
2018-Jun-17 04:57N 34°33' E 135°22'1 2.8
2018-Jun-17 04:29N 34°34' E 135°23'2 4.4
2018-Jun-17 03:58N 34°36' E 135°24'0 0.0
2018-Jun-17 03:22N 34°36' E 135°24'0 0.0
2018-Jun-17 02:58N 34°36' E 135°24'1 1.1
2018-Jun-17 02:28N 34°36' E 135°24'3 4.5
2018-Jun-17 01:48N 34°39' E 135°25'1 2.0
2018-Jun-17 01:30N 34°39' E 135°25'2 3.1
2018-Jun-17 01:00N 34°38' E 135°23'3 5.5
2018-Jun-17 00:29N 34°35' E 135°23'4 0.4
2018-Jun-16 12:01N 34°31' E 135°24'0 3.0
2018-Jun-16 12:00N 34°31' E 135°24'612.2
2018-Jun-16 11:30N 34°37' E 135°24'3 4.6
2018-Jun-16 10:57N 34°39' E 135°26'2 5.2
2018-Jun-16 10:30N 34°37' E 135°23'510.1
2018-Jun-16 10:00N 34°32' E 135°23'2 0.2
2018-Jun-16 01:11N 34°31' E 135°24'1 6.5
2018-Jun-16 01:00N 34°32' E 135°23'1 1.1
2018-Jun-16 00:30N 34°32' E 135°24'2 3.1
2018-Jun-16 00:00N 34°33' E 135°23'1 2.5
2018-Jun-15 23:30N 34°32' E 135°23'  
Track history (hours):
 
Tides and Currents Weather Stations Pressure Air Temp Water Temp Dewpoint Dewpoint Depression Visibility Wind Speed Wind Dir Waves Ship Positions

Hiei

Last reported at 2018-Jun-25 07:01 UTC. Time now 2018-Jun-25 19:40 UTC.
Position N 34°31' E 135°24'.

Length 36 m; draft 3.8 m.

Type: Tug. MMSI: 431006214.

Date/timePositionNaut miles runAvg speedWind from/ knotsBaromVisibWave heightAir tempDewpointWater temp
2018-Jun-25 07:01N 34°31' E 135°24'0 2.8
2018-Jun-25 06:59N 34°31' E 135°24'511.2
2018-Jun-25 06:30N 34°36' E 135°24'2 4.9
2018-Jun-25 06:00N 34°35' E 135°27'1 1.5
2018-Jun-25 05:30N 34°35' E 135°26'3 6.2
2018-Jun-25 05:00N 34°36' E 135°23'1 1.4
2018-Jun-25 04:23N 34°36' E 135°24'0 0.0
2018-Jun-25 03:59N 34°36' E 135°24'0 0.0
2018-Jun-25 03:29N 34°36' E 135°24'0 0.0
2018-Jun-25 02:59N 34°36' E 135°24'0 0.0
2018-Jun-25 02:29N 34°36' E 135°24'0 0.0
2018-Jun-25 01:47N 34°36' E 135°24'0 0.0
2018-Jun-25 01:29N 34°36' E 135°24'0 0.0
2018-Jun-25 00:59N 34°36' E 135°24'0 0.0
2018-Jun-25 00:29N 34°36' E 135°24'0 0.0
2018-Jun-25 00:00N 34°36' E 135°24'0 0.3
2018-Jun-24 23:27N 34°36' E 135°24'0 0.0
2018-Jun-24 23:00N 34°36' E 135°24'4 7.9
2018-Jun-24 22:29N 34°40' E 135°25'2 4.1
2018-Jun-24 22:00N 34°38' E 135°24'1 2.9
2018-Jun-24 21:30N 34°37' E 135°23'611.7
2018-Jun-24 21:00N 34°31' E 135°24'0 0.0
2018-Jun-23 09:56N 34°31' E 135°24'511.2
2018-Jun-23 09:29N 34°36' E 135°24'3 4.5
2018-Jun-23 08:46N 34°39' E 135°26'0 0.1
2018-Jun-23 08:29N 34°39' E 135°26'3 6.5
2018-Jun-23 08:00N 34°36' E 135°23'6 7.6
2018-Jun-23 07:17N 34°31' E 135°24'0 0.0
2018-Jun-23 06:59N 34°31' E 135°24'0 0.0
2018-Jun-23 06:26N 34°31' E 135°24'0 0.0
2018-Jun-23 05:59N 34°31' E 135°24'0 0.0
2018-Jun-23 05:29N 34°31' E 135°24'0 0.0
2018-Jun-23 04:55N 34°31' E 135°24'0 0.0
2018-Jun-23 04:28N 34°31' E 135°24'0 0.0
2018-Jun-23 03:58N 34°31' E 135°24'0 0.0
2018-Jun-23 03:28N 34°31' E 135°24'0 0.0
2018-Jun-23 02:59N 34°31' E 135°24'0 0.0
2018-Jun-23 02:29N 34°31' E 135°24'1 0.9
2018-Jun-23 01:50N 34°31' E 135°23'1 4.0
2018-Jun-23 01:28N 34°32' E 135°23'0 0.7
2018-Jun-23 00:56N 34°33' E 135°22'2 0.1
2018-Jun-22 06:39N 34°31' E 135°24'1 4.3
2018-Jun-22 06:30N 34°31' E 135°23'0 0.4
2018-Jun-22 05:57N 34°31' E 135°23'0 0.1
2018-Jun-22 05:30N 34°31' E 135°23'0 0.0
2018-Jun-22 05:00N 34°31' E 135°23'0 0.0
2018-Jun-22 04:30N 34°31' E 135°23'0 0.0
2018-Jun-22 03:54N 34°31' E 135°23'0 0.0
2018-Jun-22 03:30N 34°31' E 135°23'4 5.8
2018-Jun-22 02:53N 34°33' E 135°27'3 7.1
2018-Jun-22 02:30N 34°32' E 135°24'1 1.8
2018-Jun-22 01:53N 34°31' E 135°23'1 1.5
2018-Jun-22 01:30N 34°32' E 135°23'1 0.1
2018-Jun-21 09:42N 34°31' E 135°24'2 9.5
2018-Jun-21 09:29N 34°33' E 135°23'612.7
2018-Jun-21 09:00N 34°39' E 135°24'0 0.3
2018-Jun-21 08:19N 34°39' E 135°24'0 0.1
2018-Jun-21 07:49N 34°39' E 135°24'0 0.0
2018-Jun-21 07:13N 34°39' E 135°24'0 0.0
2018-Jun-21 07:00N 34°39' E 135°24'611.6
2018-Jun-21 06:30N 34°33' E 135°23'3 5.2
2018-Jun-21 06:00N 34°31' E 135°24'0 0.0
2018-Jun-21 05:21N 34°31' E 135°24'0 0.0
2018-Jun-21 04:57N 34°31' E 135°24'1 0.9
2018-Jun-21 04:11N 34°31' E 135°23'1 3.1
2018-Jun-21 03:53N 34°32' E 135°23'2 0.1
2018-Jun-20 06:38N 34°31' E 135°24'1 6.9
2018-Jun-20 06:29N 34°32' E 135°23'612.9
2018-Jun-20 06:00N 34°38' E 135°23'1 1.9
2018-Jun-20 05:29N 34°39' E 135°24'1 1.7
2018-Jun-20 05:00N 34°38' E 135°23'2 3.6
2018-Jun-20 04:25N 34°36' E 135°24'0 0.0
2018-Jun-20 03:49N 34°36' E 135°24'0 0.0
2018-Jun-20 03:25N 34°36' E 135°24'0 0.0
2018-Jun-20 02:49N 34°36' E 135°24'0 0.0
2018-Jun-20 02:25N 34°36' E 135°24'0 0.0
2018-Jun-20 00:56N 34°36' E 135°24'3 5.7
2018-Jun-20 00:27N 34°33' E 135°25'1 1.0
2018-Jun-19 23:48N 34°33' E 135°26'0 0.2
2018-Jun-19 23:19N 34°33' E 135°26'2 5.5
2018-Jun-19 23:00N 34°33' E 135°24'1 1.6
2018-Jun-19 22:28N 34°32' E 135°24'1 2.0
2018-Jun-19 21:53N 34°33' E 135°23'0 0.9
2018-Jun-19 21:29N 34°33' E 135°23'1 2.4
2018-Jun-19 20:59N 34°32' E 135°24'1 1.8
2018-Jun-19 20:31N 34°31' E 135°24'0 0.0
2018-Jun-18 09:19N 34°31' E 135°24'1 1.8
2018-Jun-18 09:00N 34°31' E 135°23'0 0.2
2018-Jun-18 08:29N 34°31' E 135°23'3 3.3
2018-Jun-18 07:27N 34°33' E 135°26'2 5.1
2018-Jun-18 07:00N 34°33' E 135°23'3 2.7
2018-Jun-18 06:03N 34°33' E 135°20'0 0.3
2018-Jun-18 05:33N 34°33' E 135°20'0 1.4
2018-Jun-18 05:27N 34°33' E 135°20'3 6.1
2018-Jun-18 05:01N 34°33' E 135°24'1 1.5
2018-Jun-18 04:00N 34°33' E 135°25'3 5.0
2018-Jun-18 03:28N 34°33' E 135°22'3 5.4
2018-Jun-18 02:59N 34°34' E 135°19'2 3.9
2018-Jun-18 02:29N 34°33' E 135°21'3 5.7
2018-Jun-18 01:55N 34°31' E 135°24'0 0.0
2018-Jun-18 01:25N 34°31' E 135°24'0 0.0
2018-Jun-18 00:46N 34°31' E 135°24'0 0.0
2018-Jun-18 00:22N 34°31' E 135°24'0 0.0
2018-Jun-17 23:52N 34°31' E 135°24'0 0.0
2018-Jun-17 23:26N 34°31' E 135°24'0 0.0
2018-Jun-17 06:08N 34°31' E 135°24'1 4.3
2018-Jun-17 06:01N 34°31' E 135°23'0 0.1
2018-Jun-17 05:29N 34°31' E 135°23'2 3.8
2018-Jun-17 04:57N 34°33' E 135°22'1 2.8
2018-Jun-17 04:29N 34°34' E 135°23'2 4.4
2018-Jun-17 03:58N 34°36' E 135°24'0 0.0
2018-Jun-17 03:22N 34°36' E 135°24'0 0.0
2018-Jun-17 02:58N 34°36' E 135°24'1 1.1
2018-Jun-17 02:28N 34°36' E 135°24'3 4.5
2018-Jun-17 01:48N 34°39' E 135°25'1 2.0
2018-Jun-17 01:30N 34°39' E 135°25'2 3.1
2018-Jun-17 01:00N 34°38' E 135°23'3 5.5
2018-Jun-17 00:29N 34°35' E 135°23'4 0.4
2018-Jun-16 12:01N 34°31' E 135°24'0 3.0
2018-Jun-16 12:00N 34°31' E 135°24'612.2
2018-Jun-16 11:30N 34°37' E 135°24'3 4.6
2018-Jun-16 10:57N 34°39' E 135°26'2 5.2
2018-Jun-16 10:30N 34°37' E 135°23'510.1
2018-Jun-16 10:00N 34°32' E 135°23'2 0.2
2018-Jun-16 01:11N 34°31' E 135°24'1 6.5
2018-Jun-16 01:00N 34°32' E 135°23'1 1.1
2018-Jun-16 00:30N 34°32' E 135°24'2 3.1
2018-Jun-16 00:00N 34°33' E 135°23'1 2.5
2018-Jun-15 23:30N 34°32' E 135°23'  

Dump ship's entire track history